sensor_id;sensor_type;location;lat;lon;timestamp;temperature;humidity
3208;DHT22;1616;52.394;9.756;2023-05-10T00:01:23;15.00;1.00
3208;DHT22;1616;52.394;9.756;2023-05-10T00:03:49;14.90;1.00
3208;DHT22;1616;52.394;9.756;2023-05-10T00:06:15;14.90;1.00
3208;DHT22;1616;52.394;9.756;2023-05-10T00:08:40;14.90;1.00
3208;DHT22;1616;52.394;9.756;2023-05-10T00:11:06;14.90;1.00
3208;DHT22;1616;52.394;9.756;2023-05-10T00:13:32;14.80;1.00
3208;DHT22;1616;52.394;9.756;2023-05-10T00:15:58;14.80;1.00
3208;DHT22;1616;52.394;9.756;2023-05-10T00:18:23;14.90;1.00
3208;DHT22;1616;52.394;9.756;2023-05-10T00:20:50;14.70;1.00
3208;DHT22;1616;52.394;9.756;2023-05-10T00:23:16;14.80;1.00
3208;DHT22;1616;52.394;9.756;2023-05-10T00:25:41;14.80;1.00
3208;DHT22;1616;52.394;9.756;2023-05-10T00:28:07;14.80;1.00
3208;DHT22;1616;52.394;9.756;2023-05-10T00:30:33;14.70;1.00
3208;DHT22;1616;52.394;9.756;2023-05-10T00:32:58;14.70;1.00
3208;DHT22;1616;52.394;9.756;2023-05-10T00:35:24;14.70;1.00
3208;DHT22;1616;52.394;9.756;2023-05-10T00:37:50;14.70;1.00
3208;DHT22;1616;52.394;9.756;2023-05-10T00:40:15;14.70;1.00
3208;DHT22;1616;52.394;9.756;2023-05-10T00:42:41;14.60;1.00
3208;DHT22;1616;52.394;9.756;2023-05-10T00:45:07;14.60;1.00
3208;DHT22;1616;52.394;9.756;2023-05-10T00:47:34;14.60;1.00
3208;DHT22;1616;52.394;9.756;2023-05-10T00:50:00;14.60;1.00
3208;DHT22;1616;52.394;9.756;2023-05-10T00:52:28;14.60;1.00
3208;DHT22;1616;52.394;9.756;2023-05-10T00:54:54;14.50;1.00
3208;DHT22;1616;52.394;9.756;2023-05-10T00:57:21;14.50;1.00
3208;DHT22;1616;52.394;9.756;2023-05-10T00:59:47;14.50;1.00
3208;DHT22;1616;52.394;9.756;2023-05-10T01:02:13;14.40;1.00
3208;DHT22;1616;52.394;9.756;2023-05-10T01:04:39;14.40;1.00
3208;DHT22;1616;52.394;9.756;2023-05-10T01:07:06;14.40;1.00
3208;DHT22;1616;52.394;9.756;2023-05-10T01:09:32;14.40;1.00
3208;DHT22;1616;52.394;9.756;2023-05-10T01:11:59;14.40;1.00
3208;DHT22;1616;52.394;9.756;2023-05-10T01:14:26;14.20;1.00
3208;DHT22;1616;52.394;9.756;2023-05-10T01:16:52;14.30;1.00
3208;DHT22;1616;52.394;9.756;2023-05-10T01:19:26;14.30;1.00
3208;DHT22;1616;52.394;9.756;2023-05-10T01:25:04;14.30;1.00
3208;DHT22;1616;52.394;9.756;2023-05-10T01:28:01;14.20;1.00
3208;DHT22;1616;52.394;9.756;2023-05-10T01:30:53;14.20;1.00
3208;DHT22;1616;52.394;9.756;2023-05-10T01:33:41;14.20;1.00
3208;DHT22;1616;52.394;9.756;2023-05-10T01:39:01;14.10;1.00
3208;DHT22;1616;52.394;9.756;2023-05-10T01:41:49;14.00;1.00
3208;DHT22;1616;52.394;9.756;2023-05-10T01:47:20;13.90;1.00
3208;DHT22;1616;52.394;9.756;2023-05-10T01:49:52;13.90;1.00
3208;DHT22;1616;52.394;9.756;2023-05-10T01:52:25;13.80;1.00
3208;DHT22;1616;52.394;9.756;2023-05-10T01:55:04;13.90;1.00
3208;DHT22;1616;52.394;9.756;2023-05-10T01:57:34;13.80;1.00
3208;DHT22;1616;52.394;9.756;2023-05-10T02:00:02;13.80;1.00
3208;DHT22;1616;52.394;9.756;2023-05-10T02:02:30;13.80;1.00
3208;DHT22;1616;52.394;9.756;2023-05-10T02:04:59;13.80;1.00
3208;DHT22;1616;52.394;9.756;2023-05-10T02:07:26;13.70;1.00
3208;DHT22;1616;52.394;9.756;2023-05-10T02:09:54;13.70;1.00
3208;DHT22;1616;52.394;9.756;2023-05-10T02:12:20;13.70;1.00
3208;DHT22;1616;52.394;9.756;2023-05-10T02:14:47;13.70;1.00
3208;DHT22;1616;52.394;9.756;2023-05-10T02:17:14;13.80;1.00
3208;DHT22;1616;52.394;9.756;2023-05-10T02:19:41;13.70;1.00
3208;DHT22;1616;52.394;9.756;2023-05-10T02:22:09;13.70;1.00
3208;DHT22;1616;52.394;9.756;2023-05-10T02:24:36;13.70;1.00
3208;DHT22;1616;52.394;9.756;2023-05-10T02:27:03;13.70;1.00
3208;DHT22;1616;52.394;9.756;2023-05-10T02:29:31;13.60;1.00
3208;DHT22;1616;52.394;9.756;2023-05-10T02:31:57;13.60;1.00
3208;DHT22;1616;52.394;9.756;2023-05-10T02:34:25;13.60;1.00
3208;DHT22;1616;52.394;9.756;2023-05-10T02:36:52;13.60;1.00
3208;DHT22;1616;52.394;9.756;2023-05-10T02:39:19;13.60;1.00
3208;DHT22;1616;52.394;9.756;2023-05-10T02:41:46;13.70;1.00
3208;DHT22;1616;52.394;9.756;2023-05-10T02:44:15;13.70;1.00
3208;DHT22;1616;52.394;9.756;2023-05-10T02:46:42;13.70;1.00
3208;DHT22;1616;52.394;9.756;2023-05-10T02:49:09;13.70;1.00
3208;DHT22;1616;52.394;9.756;2023-05-10T02:51:37;13.70;1.00
3208;DHT22;1616;52.394;9.756;2023-05-10T02:54:12;13.80;1.00
3208;DHT22;1616;52.394;9.756;2023-05-10T02:56:46;13.70;1.00
3208;DHT22;1616;52.394;9.756;2023-05-10T02:59:12;13.70;1.00
3208;DHT22;1616;52.394;9.756;2023-05-10T03:01:38;13.80;1.00
3208;DHT22;1616;52.394;9.756;2023-05-10T03:04:04;13.80;1.00
3208;DHT22;1616;52.394;9.756;2023-05-10T03:06:30;13.80;1.00
3208;DHT22;1616;52.394;9.756;2023-05-10T03:08:55;13.80;1.00
3208;DHT22;1616;52.394;9.756;2023-05-10T03:11:37;13.90;1.00
3208;DHT22;1616;52.394;9.756;2023-05-10T03:16:50;13.70;1.00
3208;DHT22;1616;52.394;9.756;2023-05-10T03:19:40;13.60;1.00
3208;DHT22;1616;52.394;9.756;2023-05-10T03:22:10;13.60;1.00
3208;DHT22;1616;52.394;9.756;2023-05-10T03:24:36;13.50;1.00
3208;DHT22;1616;52.394;9.756;2023-05-10T03:27:05;13.50;1.00
3208;DHT22;1616;52.394;9.756;2023-05-10T03:29:31;13.40;1.00
3208;DHT22;1616;52.394;9.756;2023-05-10T03:31:58;13.30;1.00
3208;DHT22;1616;52.394;9.756;2023-05-10T03:34:25;13.30;1.00
3208;DHT22;1616;52.394;9.756;2023-05-10T03:36:51;13.20;1.00
3208;DHT22;1616;52.394;9.756;2023-05-10T03:39:17;13.20;1.00
3208;DHT22;1616;52.394;9.756;2023-05-10T03:41:42;13.20;1.00
3208;DHT22;1616;52.394;9.756;2023-05-10T03:44:08;13.20;1.00
3208;DHT22;1616;52.394;9.756;2023-05-10T03:46:33;13.20;1.00
3208;DHT22;1616;52.394;9.756;2023-05-10T03:48:59;13.20;1.00
3208;DHT22;1616;52.394;9.756;2023-05-10T03:51:25;13.30;1.00
3208;DHT22;1616;52.394;9.756;2023-05-10T03:53:54;13.30;1.00
3208;DHT22;1616;52.394;9.756;2023-05-10T03:56:20;13.20;1.00
3208;DHT22;1616;52.394;9.756;2023-05-10T03:58:46;13.20;1.00
3208;DHT22;1616;52.394;9.756;2023-05-10T04:01:11;13.20;1.00
3208;DHT22;1616;52.394;9.756;2023-05-10T04:03:37;13.20;1.00
3208;DHT22;1616;52.394;9.756;2023-05-10T04:06:04;13.30;1.00
3208;DHT22;1616;52.394;9.756;2023-05-10T04:08:30;13.60;1.00
3208;DHT22;1616;52.394;9.756;2023-05-10T04:11:06;13.90;1.00
3208;DHT22;1616;52.394;9.756;2023-05-10T04:13:33;14.20;1.00
3208;DHT22;1616;52.394;9.756;2023-05-10T04:15:58;14.50;1.00
3208;DHT22;1616;52.394;9.756;2023-05-10T04:18:24;14.70;1.00
3208;DHT22;1616;52.394;9.756;2023-05-10T04:20:50;14.90;1.00
3208;DHT22;1616;52.394;9.756;2023-05-10T04:23:16;15.00;1.00
3208;DHT22;1616;52.394;9.756;2023-05-10T04:25:42;15.70;1.00
3208;DHT22;1616;52.394;9.756;2023-05-10T04:28:08;15.00;1.00
3208;DHT22;1616;52.394;9.756;2023-05-10T04:30:34;15.00;1.00
3208;DHT22;1616;52.394;9.756;2023-05-10T04:33:00;15.10;1.00
3208;DHT22;1616;52.394;9.756;2023-05-10T04:35:27;15.20;1.00
3208;DHT22;1616;52.394;9.756;2023-05-10T04:37:53;15.30;1.00
3208;DHT22;1616;52.394;9.756;2023-05-10T04:40:19;15.30;1.00
3208;DHT22;1616;52.394;9.756;2023-05-10T04:42:45;15.00;1.00
3208;DHT22;1616;52.394;9.756;2023-05-10T04:45:11;14.80;1.00
3208;DHT22;1616;52.394;9.756;2023-05-10T04:47:37;14.40;1.00
3208;DHT22;1616;52.394;9.756;2023-05-10T04:50:04;14.10;1.00
3208;DHT22;1616;52.394;9.756;2023-05-10T04:52:29;13.80;1.00
3208;DHT22;1616;52.394;9.756;2023-05-10T04:57:34;13.40;1.00
3208;DHT22;1616;52.394;9.756;2023-05-10T05:00:00;13.20;1.00
3208;DHT22;1616;52.394;9.756;2023-05-10T05:02:25;13.20;1.00
3208;DHT22;1616;52.394;9.756;2023-05-10T05:04:51;13.20;1.00
3208;DHT22;1616;52.394;9.756;2023-05-10T05:07:16;13.10;1.00
3208;DHT22;1616;52.394;9.756;2023-05-10T05:09:42;13.00;1.00
3208;DHT22;1616;52.394;9.756;2023-05-10T05:12:07;13.00;1.00
3208;DHT22;1616;52.394;9.756;2023-05-10T05:14:33;12.80;1.00
3208;DHT22;1616;52.394;9.756;2023-05-10T05:16:59;12.80;1.00
3208;DHT22;1616;52.394;9.756;2023-05-10T05:19:25;12.70;1.00
3208;DHT22;1616;52.394;9.756;2023-05-10T05:21:50;12.50;1.00
3208;DHT22;1616;52.394;9.756;2023-05-10T05:24:16;12.50;1.00
3208;DHT22;1616;52.394;9.756;2023-05-10T05:26:41;12.50;1.00
3208;DHT22;1616;52.394;9.756;2023-05-10T05:29:07;12.40;1.00
3208;DHT22;1616;52.394;9.756;2023-05-10T05:31:33;12.40;1.00
3208;DHT22;1616;52.394;9.756;2023-05-10T05:33:58;12.40;1.00
3208;DHT22;1616;52.394;9.756;2023-05-10T05:36:24;12.50;1.00
3208;DHT22;1616;52.394;9.756;2023-05-10T05:38:50;12.40;1.00
3208;DHT22;1616;52.394;9.756;2023-05-10T05:41:15;12.50;1.00
3208;DHT22;1616;52.394;9.756;2023-05-10T05:43:41;12.50;1.00
3208;DHT22;1616;52.394;9.756;2023-05-10T05:46:07;12.40;1.00
3208;DHT22;1616;52.394;9.756;2023-05-10T05:48:32;12.40;1.00
3208;DHT22;1616;52.394;9.756;2023-05-10T05:50:58;12.50;1.00
3208;DHT22;1616;52.394;9.756;2023-05-10T05:53:23;12.50;1.00
3208;DHT22;1616;52.394;9.756;2023-05-10T05:55:53;12.50;1.00
3208;DHT22;1616;52.394;9.756;2023-05-10T05:58:21;12.30;1.00
3208;DHT22;1616;52.394;9.756;2023-05-10T06:00:47;12.40;1.00
3208;DHT22;1616;52.394;9.756;2023-05-10T06:03:13;12.30;1.00
3208;DHT22;1616;52.394;9.756;2023-05-10T06:05:38;12.40;1.00
3208;DHT22;1616;52.394;9.756;2023-05-10T06:08:04;12.50;1.00
3208;DHT22;1616;52.394;9.756;2023-05-10T06:10:30;12.50;1.00
3208;DHT22;1616;52.394;9.756;2023-05-10T06:12:56;12.60;1.00
3208;DHT22;1616;52.394;9.756;2023-05-10T06:15:21;12.50;1.00
3208;DHT22;1616;52.394;9.756;2023-05-10T06:17:47;12.70;1.00
3208;DHT22;1616;52.394;9.756;2023-05-10T06:20:15;12.70;1.00
3208;DHT22;1616;52.394;9.756;2023-05-10T06:22:41;12.80;1.00
3208;DHT22;1616;52.394;9.756;2023-05-10T06:25:07;12.90;1.00
3208;DHT22;1616;52.394;9.756;2023-05-10T06:27:33;12.90;1.00
3208;DHT22;1616;52.394;9.756;2023-05-10T06:29:59;12.90;1.00
3208;DHT22;1616;52.394;9.756;2023-05-10T06:32:25;12.90;1.00
3208;DHT22;1616;52.394;9.756;2023-05-10T06:34:50;12.90;1.00
3208;DHT22;1616;52.394;9.756;2023-05-10T06:37:16;12.90;1.00
3208;DHT22;1616;52.394;9.756;2023-05-10T06:39:42;12.80;1.00
3208;DHT22;1616;52.394;9.756;2023-05-10T06:42:07;12.70;1.00
3208;DHT22;1616;52.394;9.756;2023-05-10T06:44:33;12.80;1.00
3208;DHT22;1616;52.394;9.756;2023-05-10T06:46:59;12.70;1.00
3208;DHT22;1616;52.394;9.756;2023-05-10T06:49:24;12.70;1.00
3208;DHT22;1616;52.394;9.756;2023-05-10T06:51:50;12.60;1.00
3208;DHT22;1616;52.394;9.756;2023-05-10T06:54:15;12.70;1.00
3208;DHT22;1616;52.394;9.756;2023-05-10T06:56:41;12.70;1.00
3208;DHT22;1616;52.394;9.756;2023-05-10T06:59:06;12.70;1.00
3208;DHT22;1616;52.394;9.756;2023-05-10T07:01:32;12.70;1.00
3208;DHT22;1616;52.394;9.756;2023-05-10T07:03:58;12.80;1.00
3208;DHT22;1616;52.394;9.756;2023-05-10T07:06:24;12.90;1.00
3208;DHT22;1616;52.394;9.756;2023-05-10T07:08:49;12.90;1.00
3208;DHT22;1616;52.394;9.756;2023-05-10T07:11:15;13.00;1.00
3208;DHT22;1616;52.394;9.756;2023-05-10T07:13:40;13.00;1.00
3208;DHT22;1616;52.394;9.756;2023-05-10T07:16:09;13.10;1.00
3208;DHT22;1616;52.394;9.756;2023-05-10T07:18:35;13.10;1.00
3208;DHT22;1616;52.394;9.756;2023-05-10T07:21:01;13.30;1.00
3208;DHT22;1616;52.394;9.756;2023-05-10T07:23:27;13.30;1.00
3208;DHT22;1616;52.394;9.756;2023-05-10T07:25:52;13.30;1.00
3208;DHT22;1616;52.394;9.756;2023-05-10T07:28:19;13.40;1.00
3208;DHT22;1616;52.394;9.756;2023-05-10T07:30:44;13.50;1.00
3208;DHT22;1616;52.394;9.756;2023-05-10T07:33:13;13.50;1.00
3208;DHT22;1616;52.394;9.756;2023-05-10T07:35:39;13.60;1.00
3208;DHT22;1616;52.394;9.756;2023-05-10T07:38:05;13.60;1.00
3208;DHT22;1616;52.394;9.756;2023-05-10T07:40:30;13.60;1.00
3208;DHT22;1616;52.394;9.756;2023-05-10T07:42:56;13.70;1.00
3208;DHT22;1616;52.394;9.756;2023-05-10T07:45:21;13.70;1.00
3208;DHT22;1616;52.394;9.756;2023-05-10T07:47:47;13.70;1.00
3208;DHT22;1616;52.394;9.756;2023-05-10T07:50:14;13.70;1.00
3208;DHT22;1616;52.394;9.756;2023-05-10T07:52:40;13.80;1.00
3208;DHT22;1616;52.394;9.756;2023-05-10T07:55:07;13.80;1.00
3208;DHT22;1616;52.394;9.756;2023-05-10T07:57:34;13.60;1.00
3208;DHT22;1616;52.394;9.756;2023-05-10T07:59:59;13.80;1.00
3208;DHT22;1616;52.394;9.756;2023-05-10T08:02:25;13.80;1.00
3208;DHT22;1616;52.394;9.756;2023-05-10T08:04:51;13.80;1.00
3208;DHT22;1616;52.394;9.756;2023-05-10T08:07:17;13.90;1.00
3208;DHT22;1616;52.394;9.756;2023-05-10T08:09:43;13.90;1.00
3208;DHT22;1616;52.394;9.756;2023-05-10T08:12:08;13.90;1.00
3208;DHT22;1616;52.394;9.756;2023-05-10T08:14:34;14.00;1.00
3208;DHT22;1616;52.394;9.756;2023-05-10T08:17:02;14.00;1.00
3208;DHT22;1616;52.394;9.756;2023-05-10T08:19:28;14.10;1.00
3208;DHT22;1616;52.394;9.756;2023-05-10T08:21:54;14.20;1.00
3208;DHT22;1616;52.394;9.756;2023-05-10T08:24:21;14.20;1.00
3208;DHT22;1616;52.394;9.756;2023-05-10T08:26:47;14.30;1.00
3208;DHT22;1616;52.394;9.756;2023-05-10T08:29:13;14.40;1.00
3208;DHT22;1616;52.394;9.756;2023-05-10T08:31:39;14.40;1.00
3208;DHT22;1616;52.394;9.756;2023-05-10T08:34:05;14.50;1.00
3208;DHT22;1616;52.394;9.756;2023-05-10T08:36:31;14.60;1.00
3208;DHT22;1616;52.394;9.756;2023-05-10T08:38:57;14.70;1.00
3208;DHT22;1616;52.394;9.756;2023-05-10T08:41:24;14.80;1.00
3208;DHT22;1616;52.394;9.756;2023-05-10T08:43:52;14.90;1.00
3208;DHT22;1616;52.394;9.756;2023-05-10T08:46:20;15.00;1.00
3208;DHT22;1616;52.394;9.756;2023-05-10T08:48:47;15.10;1.00
3208;DHT22;1616;52.394;9.756;2023-05-10T08:51:14;15.10;1.00
3208;DHT22;1616;52.394;9.756;2023-05-10T08:53:42;15.10;1.00
3208;DHT22;1616;52.394;9.756;2023-05-10T08:56:08;15.10;1.00
3208;DHT22;1616;52.394;9.756;2023-05-10T08:58:34;15.10;1.00
3208;DHT22;1616;52.394;9.756;2023-05-10T09:01:00;15.10;1.00
3208;DHT22;1616;52.394;9.756;2023-05-10T09:03:26;15.10;1.00
3208;DHT22;1616;52.394;9.756;2023-05-10T09:05:52;15.10;1.00
3208;DHT22;1616;52.394;9.756;2023-05-10T09:08:18;15.10;1.00
3208;DHT22;1616;52.394;9.756;2023-05-10T09:10:44;15.10;1.00
3208;DHT22;1616;52.394;9.756;2023-05-10T09:13:13;15.00;1.00
3208;DHT22;1616;52.394;9.756;2023-05-10T09:15:39;15.00;1.00
3208;DHT22;1616;52.394;9.756;2023-05-10T09:18:05;14.90;1.00
3208;DHT22;1616;52.394;9.756;2023-05-10T09:20:31;14.90;1.00
3208;DHT22;1616;52.394;9.756;2023-05-10T09:22:57;14.80;1.00
3208;DHT22;1616;52.394;9.756;2023-05-10T09:25:22;14.80;1.00
3208;DHT22;1616;52.394;9.756;2023-05-10T09:27:48;14.80;1.00
3208;DHT22;1616;52.394;9.756;2023-05-10T09:30:34;14.90;1.00
3208;DHT22;1616;52.394;9.756;2023-05-10T09:33:00;14.90;1.00
3208;DHT22;1616;52.394;9.756;2023-05-10T09:35:28;15.00;1.00
3208;DHT22;1616;52.394;9.756;2023-05-10T09:37:56;15.10;1.00
3208;DHT22;1616;52.394;9.756;2023-05-10T09:40:23;15.20;1.00
3208;DHT22;1616;52.394;9.756;2023-05-10T09:43:06;15.40;1.00
3208;DHT22;1616;52.394;9.756;2023-05-10T09:45:33;15.60;1.00
3208;DHT22;1616;52.394;9.756;2023-05-10T09:48:00;15.70;1.00
3208;DHT22;1616;52.394;9.756;2023-05-10T09:50:27;15.90;1.00
3208;DHT22;1616;52.394;9.756;2023-05-10T09:52:57;16.00;1.00
3208;DHT22;1616;52.394;9.756;2023-05-10T09:58:01;16.30;1.00
3208;DHT22;1616;52.394;9.756;2023-05-10T10:00:28;16.40;1.00
3208;DHT22;1616;52.394;9.756;2023-05-10T10:03:00;16.60;1.00
3208;DHT22;1616;52.394;9.756;2023-05-10T10:05:33;16.70;1.00
3208;DHT22;1616;52.394;9.756;2023-05-10T10:08:00;16.90;1.00
3208;DHT22;1616;52.394;9.756;2023-05-10T10:10:27;17.00;1.00
3208;DHT22;1616;52.394;9.756;2023-05-10T10:12:53;17.10;1.00
3208;DHT22;1616;52.394;9.756;2023-05-10T10:15:21;17.30;1.00
3208;DHT22;1616;52.394;9.756;2023-05-10T10:17:46;17.40;1.00
3208;DHT22;1616;52.394;9.756;2023-05-10T10:20:13;17.50;1.00
3208;DHT22;1616;52.394;9.756;2023-05-10T10:22:39;17.60;1.00
3208;DHT22;1616;52.394;9.756;2023-05-10T10:25:05;17.70;1.00
3208;DHT22;1616;52.394;9.756;2023-05-10T10:36:00;18.30;1.00
3208;DHT22;1616;52.394;9.756;2023-05-10T10:38:36;18.40;1.00
3208;DHT22;1616;52.394;9.756;2023-05-10T10:41:09;18.60;1.00
3208;DHT22;1616;52.394;9.756;2023-05-10T10:43:35;18.70;1.00
3208;DHT22;1616;52.394;9.756;2023-05-10T10:46:17;18.90;1.00
3208;DHT22;1616;52.394;9.756;2023-05-10T10:49:07;19.10;1.00
3208;DHT22;1616;52.394;9.756;2023-05-10T10:51:37;19.30;1.00
3208;DHT22;1616;52.394;9.756;2023-05-10T10:54:10;19.50;1.00
3208;DHT22;1616;52.394;9.756;2023-05-10T10:56:36;19.60;1.00
3208;DHT22;1616;52.394;9.756;2023-05-10T10:59:02;19.70;1.00
3208;DHT22;1616;52.394;9.756;2023-05-10T11:01:33;19.70;1.00
3208;DHT22;1616;52.394;9.756;2023-05-10T11:06:32;19.80;1.00
3208;DHT22;1616;52.394;9.756;2023-05-10T11:08:59;20.00;1.00
3208;DHT22;1616;52.394;9.756;2023-05-10T11:11:25;20.30;1.00
3208;DHT22;1616;52.394;9.756;2023-05-10T11:13:51;20.50;1.00
3208;DHT22;1616;52.394;9.756;2023-05-10T11:16:21;20.60;1.00
3208;DHT22;1616;52.394;9.756;2023-05-10T11:19:07;20.80;1.00
3208;DHT22;1616;52.394;9.756;2023-05-10T11:24:26;21.00;1.00
3208;DHT22;1616;52.394;9.756;2023-05-10T11:26:53;21.10;1.00
3208;DHT22;1616;52.394;9.756;2023-05-10T11:29:19;21.30;1.00
3208;DHT22;1616;52.394;9.756;2023-05-10T11:31:46;21.50;1.00
3208;DHT22;1616;52.394;9.756;2023-05-10T11:34:31;21.60;1.00
3208;DHT22;1616;52.394;9.756;2023-05-10T11:37:00;21.60;1.00
3208;DHT22;1616;52.394;9.756;2023-05-10T11:39:30;21.60;1.00
3208;DHT22;1616;52.394;9.756;2023-05-10T11:41:57;21.90;1.00
3208;DHT22;1616;52.394;9.756;2023-05-10T11:44:23;22.30;1.00
3208;DHT22;1616;52.394;9.756;2023-05-10T11:46:50;22.70;1.00
3208;DHT22;1616;52.394;9.756;2023-05-10T11:49:15;23.00;1.00
3208;DHT22;1616;52.394;9.756;2023-05-10T11:51:41;23.40;1.00
3208;DHT22;1616;52.394;9.756;2023-05-10T11:54:10;23.60;1.00
3208;DHT22;1616;52.394;9.756;2023-05-10T11:56:37;23.90;1.00
3208;DHT22;1616;52.394;9.756;2023-05-10T11:59:04;24.00;1.00
3208;DHT22;1616;52.394;9.756;2023-05-10T12:01:30;24.30;1.00
3208;DHT22;1616;52.394;9.756;2023-05-10T12:03:57;24.40;1.00
3208;DHT22;1616;52.394;9.756;2023-05-10T12:06:30;24.60;1.00
3208;DHT22;1616;52.394;9.756;2023-05-10T12:08:56;25.10;1.00
3208;DHT22;1616;52.394;9.756;2023-05-10T12:11:25;25.50;1.00
3208;DHT22;1616;52.394;9.756;2023-05-10T12:13:51;25.90;1.00
3208;DHT22;1616;52.394;9.756;2023-05-10T12:16:20;26.40;1.00
3208;DHT22;1616;52.394;9.756;2023-05-10T12:18:50;26.80;1.00
3208;DHT22;1616;52.394;9.756;2023-05-10T12:21:21;27.30;1.00
3208;DHT22;1616;52.394;9.756;2023-05-10T12:23:51;27.50;1.00
3208;DHT22;1616;52.394;9.756;2023-05-10T12:26:17;27.50;1.00
3208;DHT22;1616;52.394;9.756;2023-05-10T12:28:43;27.50;1.00
3208;DHT22;1616;52.394;9.756;2023-05-10T12:31:09;27.30;1.00
3208;DHT22;1616;52.394;9.756;2023-05-10T12:33:40;27.00;1.00
3208;DHT22;1616;52.394;9.756;2023-05-10T12:36:12;26.50;1.00
3208;DHT22;1616;52.394;9.756;2023-05-10T12:38:40;26.10;1.00
3208;DHT22;1616;52.394;9.756;2023-05-10T12:41:10;25.80;1.00
3208;DHT22;1616;52.394;9.756;2023-05-10T12:43:36;25.80;1.00
3208;DHT22;1616;52.394;9.756;2023-05-10T12:46:10;26.10;1.00
3208;DHT22;1616;52.394;9.756;2023-05-10T12:48:37;26.50;1.00
3208;DHT22;1616;52.394;9.756;2023-05-10T12:51:04;26.70;1.00
3208;DHT22;1616;52.394;9.756;2023-05-10T12:53:30;26.80;1.00
3208;DHT22;1616;52.394;9.756;2023-05-10T12:55:56;26.60;1.00
3208;DHT22;1616;52.394;9.756;2023-05-10T12:58:22;26.30;1.00
3208;DHT22;1616;52.394;9.756;2023-05-10T13:00:48;25.90;1.00
3208;DHT22;1616;52.394;9.756;2023-05-10T13:03:14;25.80;1.00
3208;DHT22;1616;52.394;9.756;2023-05-10T13:05:41;25.60;1.00
3208;DHT22;1616;52.394;9.756;2023-05-10T13:08:06;25.30;1.00
3208;DHT22;1616;52.394;9.756;2023-05-10T13:10:32;25.10;1.00
3208;DHT22;1616;52.394;9.756;2023-05-10T13:12:58;24.80;1.00
3208;DHT22;1616;52.394;9.756;2023-05-10T13:15:25;24.50;1.00
3208;DHT22;1616;52.394;9.756;2023-05-10T13:17:50;24.30;1.00
3208;DHT22;1616;52.394;9.756;2023-05-10T13:20:17;24.00;1.00
3208;DHT22;1616;52.394;9.756;2023-05-10T13:22:43;23.90;1.00
3208;DHT22;1616;52.394;9.756;2023-05-10T13:25:10;23.70;1.00
3208;DHT22;1616;52.394;9.756;2023-05-10T13:27:37;23.60;1.00
3208;DHT22;1616;52.394;9.756;2023-05-10T13:30:03;23.50;1.00
3208;DHT22;1616;52.394;9.756;2023-05-10T13:32:29;23.40;1.00
3208;DHT22;1616;52.394;9.756;2023-05-10T13:34:55;23.30;1.00
3208;DHT22;1616;52.394;9.756;2023-05-10T13:37:21;23.40;1.00
3208;DHT22;1616;52.394;9.756;2023-05-10T13:39:47;23.40;1.00
3208;DHT22;1616;52.394;9.756;2023-05-10T13:42:13;23.40;1.00
3208;DHT22;1616;52.394;9.756;2023-05-10T13:44:39;23.40;1.00
3208;DHT22;1616;52.394;9.756;2023-05-10T13:47:05;23.40;1.00
3208;DHT22;1616;52.394;9.756;2023-05-10T13:49:31;23.30;1.00
3208;DHT22;1616;52.394;9.756;2023-05-10T13:51:57;23.20;1.00
3208;DHT22;1616;52.394;9.756;2023-05-10T13:54:23;23.10;1.00
3208;DHT22;1616;52.394;9.756;2023-05-10T13:56:49;23.00;1.00
3208;DHT22;1616;52.394;9.756;2023-05-10T13:59:15;22.70;1.00
3208;DHT22;1616;52.394;9.756;2023-05-10T14:01:42;22.50;1.00
3208;DHT22;1616;52.394;9.756;2023-05-10T14:04:11;22.20;1.00
3208;DHT22;1616;52.394;9.756;2023-05-10T14:06:37;21.90;1.00
3208;DHT22;1616;52.394;9.756;2023-05-10T14:09:03;21.60;1.00
3208;DHT22;1616;52.394;9.756;2023-05-10T14:11:29;21.30;1.00
3208;DHT22;1616;52.394;9.756;2023-05-10T14:13:55;21.00;1.00
3208;DHT22;1616;52.394;9.756;2023-05-10T14:16:21;20.70;1.00
3208;DHT22;1616;52.394;9.756;2023-05-10T14:18:47;20.40;1.00
3208;DHT22;1616;52.394;9.756;2023-05-10T14:21:13;20.10;1.00
3208;DHT22;1616;52.394;9.756;2023-05-10T14:23:39;20.00;1.00
3208;DHT22;1616;52.394;9.756;2023-05-10T14:26:05;19.80;1.00
3208;DHT22;1616;52.394;9.756;2023-05-10T14:28:30;19.60;1.00
3208;DHT22;1616;52.394;9.756;2023-05-10T14:30:56;19.50;1.00
3208;DHT22;1616;52.394;9.756;2023-05-10T14:33:22;19.40;1.00
3208;DHT22;1616;52.394;9.756;2023-05-10T14:35:48;19.30;1.00
3208;DHT22;1616;52.394;9.756;2023-05-10T14:38:14;19.20;1.00
3208;DHT22;1616;52.394;9.756;2023-05-10T14:40:40;19.20;1.00
3208;DHT22;1616;52.394;9.756;2023-05-10T14:43:06;19.20;1.00
3208;DHT22;1616;52.394;9.756;2023-05-10T14:45:31;19.20;1.00
3208;DHT22;1616;52.394;9.756;2023-05-10T14:47:57;19.20;1.00
3208;DHT22;1616;52.394;9.756;2023-05-10T14:50:23;19.20;1.00
3208;DHT22;1616;52.394;9.756;2023-05-10T14:52:49;19.20;1.00
3208;DHT22;1616;52.394;9.756;2023-05-10T14:55:15;19.20;1.00
3208;DHT22;1616;52.394;9.756;2023-05-10T14:57:41;19.30;1.00
3208;DHT22;1616;52.394;9.756;2023-05-10T15:00:07;19.40;1.00
3208;DHT22;1616;52.394;9.756;2023-05-10T15:02:33;19.50;1.00
3208;DHT22;1616;52.394;9.756;2023-05-10T15:04:59;19.70;1.00
3208;DHT22;1616;52.394;9.756;2023-05-10T15:07:24;19.80;1.00
3208;DHT22;1616;52.394;9.756;2023-05-10T15:09:51;19.80;1.00
3208;DHT22;1616;52.394;9.756;2023-05-10T15:12:18;20.00;1.00
3208;DHT22;1616;52.394;9.756;2023-05-10T15:14:44;20.00;1.00
3208;DHT22;1616;52.394;9.756;2023-05-10T15:17:10;20.10;1.00
3208;DHT22;1616;52.394;9.756;2023-05-10T15:19:35;20.20;1.00
3208;DHT22;1616;52.394;9.756;2023-05-10T15:22:02;20.20;1.00
3208;DHT22;1616;52.394;9.756;2023-05-10T15:24:28;20.30;1.00
3208;DHT22;1616;52.394;9.756;2023-05-10T15:26:53;20.30;1.00
3208;DHT22;1616;52.394;9.756;2023-05-10T15:29:19;20.30;1.00
3208;DHT22;1616;52.394;9.756;2023-05-10T15:31:49;20.30;1.00
3208;DHT22;1616;52.394;9.756;2023-05-10T15:34:15;20.30;1.00
3208;DHT22;1616;52.394;9.756;2023-05-10T15:36:42;20.20;1.00
3208;DHT22;1616;52.394;9.756;2023-05-10T15:39:08;20.20;1.00
3208;DHT22;1616;52.394;9.756;2023-05-10T15:41:35;20.10;1.00
3208;DHT22;1616;52.394;9.756;2023-05-10T15:44:00;20.10;1.00
3208;DHT22;1616;52.394;9.756;2023-05-10T15:46:27;20.10;1.00
3208;DHT22;1616;52.394;9.756;2023-05-10T15:48:53;20.00;1.00
3208;DHT22;1616;52.394;9.756;2023-05-10T15:51:18;20.00;1.00
3208;DHT22;1616;52.394;9.756;2023-05-10T15:53:44;19.80;1.00
3208;DHT22;1616;52.394;9.756;2023-05-10T15:56:10;19.80;1.00
3208;DHT22;1616;52.394;9.756;2023-05-10T15:58:37;19.60;1.00
3208;DHT22;1616;52.394;9.756;2023-05-10T16:01:03;19.50;1.00
3208;DHT22;1616;52.394;9.756;2023-05-10T16:03:30;19.40;1.00
3208;DHT22;1616;52.394;9.756;2023-05-10T16:05:56;19.20;1.00
3208;DHT22;1616;52.394;9.756;2023-05-10T16:08:23;19.00;1.00
3208;DHT22;1616;52.394;9.756;2023-05-10T16:10:50;18.80;1.00
3208;DHT22;1616;52.394;9.756;2023-05-10T16:13:16;18.60;1.00
3208;DHT22;1616;52.394;9.756;2023-05-10T16:15:42;18.30;1.00
3208;DHT22;1616;52.394;9.756;2023-05-10T16:18:08;17.90;1.00
3208;DHT22;1616;52.394;9.756;2023-05-10T16:20:33;17.60;1.00
3208;DHT22;1616;52.394;9.756;2023-05-10T16:23:03;17.40;1.00
3208;DHT22;1616;52.394;9.756;2023-05-10T16:25:30;17.10;1.00
3208;DHT22;1616;52.394;9.756;2023-05-10T16:27:57;16.80;1.00
3208;DHT22;1616;52.394;9.756;2023-05-10T16:30:23;16.60;1.00
3208;DHT22;1616;52.394;9.756;2023-05-10T16:32:51;16.30;1.00
3208;DHT22;1616;52.394;9.756;2023-05-10T16:35:17;16.10;1.00
3208;DHT22;1616;52.394;9.756;2023-05-10T16:37:43;16.00;1.00
3208;DHT22;1616;52.394;9.756;2023-05-10T16:40:09;16.00;1.00
3208;DHT22;1616;52.394;9.756;2023-05-10T16:42:35;16.10;1.00
3208;DHT22;1616;52.394;9.756;2023-05-10T16:45:01;16.20;1.00
3208;DHT22;1616;52.394;9.756;2023-05-10T16:47:32;16.20;1.00